createdAt,value
2023-05-17T00:03:10.813Z,45.23
2023-05-17T00:08:12.597Z,45.15
2023-05-17T00:13:14.106Z,45.44
2023-05-17T00:18:15.823Z,45.22
2023-05-17T00:23:17.377Z,45.28
2023-05-17T00:28:18.907Z,45.17
2023-05-17T00:33:20.512Z,45.09
2023-05-17T00:38:22.129Z,44.99
2023-05-17T00:43:23.729Z,45.31
2023-05-17T00:48:26.395Z,45.07
2023-05-17T00:53:29.553Z,45.30
2023-05-17T00:58:31.190Z,45.01
2023-05-17T01:03:33.003Z,44.68
2023-05-17T01:08:34.759Z,44.21
2023-05-17T01:13:48.796Z,44.37
2023-05-17T01:19:02.610Z,43.86
2023-05-17T01:24:28.843Z,43.67
2023-05-17T01:29:33.055Z,43.86
2023-05-17T01:34:35.077Z,43.94
2023-05-17T01:39:37.724Z,43.92
2023-05-17T01:45:07.656Z,43.59
2023-05-17T01:50:12.716Z,43.91
2023-05-17T01:56:02.558Z,43.92
2023-05-17T02:01:05.889Z,44.00
2023-05-17T02:06:07.629Z,43.67
2023-05-17T02:11:09.367Z,44.05
2023-05-17T02:16:11.125Z,44.14
2023-05-17T02:21:13.383Z,43.95
2023-05-17T02:26:14.991Z,43.87
2023-05-17T02:31:16.544Z,44.12
2023-05-17T02:36:18.091Z,43.98
2023-05-17T02:41:20.206Z,43.90
2023-05-17T02:46:22.152Z,44.27
2023-05-17T02:51:23.721Z,44.42
2023-05-17T02:56:25.709Z,44.19
2023-05-17T03:01:28.046Z,44.22
2023-05-17T03:06:31.321Z,44.49
2023-05-17T03:11:33.579Z,44.47
2023-05-17T03:16:36.830Z,44.36
2023-05-17T03:21:40.132Z,44.41
2023-05-17T03:26:41.864Z,44.60
2023-05-17T03:31:45.376Z,44.55
2023-05-17T03:36:48.979Z,44.56
2023-05-17T03:41:51.048Z,44.20
2023-05-17T03:46:53.101Z,44.40
2023-05-17T03:51:56.315Z,44.54
2023-05-17T03:56:58.106Z,44.69
2023-05-17T04:01:59.881Z,44.54
2023-05-17T04:07:02.591Z,45.11
2023-05-17T04:12:04.528Z,44.90
2023-05-17T04:17:06.158Z,45.28
2023-05-17T04:22:07.852Z,44.79
2023-05-17T04:27:09.776Z,45.11
2023-05-17T04:32:11.347Z,45.37
2023-05-17T04:37:13.692Z,45.19
2023-05-17T04:42:15.690Z,44.86
2023-05-17T04:47:23.310Z,44.89
2023-05-17T04:52:24.949Z,45.25
2023-05-17T04:57:27.140Z,45.09
2023-05-17T05:02:38.524Z,44.95
2023-05-17T05:07:41.165Z,45.34
2023-05-17T05:12:44.900Z,45.37
2023-05-17T05:17:48.387Z,45.08
2023-05-17T05:22:50.121Z,45.35
2023-05-17T05:27:53.259Z,45.28
2023-05-17T05:32:55.028Z,45.34
2023-05-17T05:37:57.810Z,45.41
2023-05-17T05:42:59.842Z,45.70
2023-05-17T05:48:01.775Z,45.31
2023-05-17T05:53:17.277Z,45.52
2023-05-17T05:58:23.503Z,45.38
2023-05-17T06:03:26.342Z,45.73
2023-05-17T06:08:27.855Z,45.45
2023-05-17T06:13:29.392Z,45.65
2023-05-17T06:18:30.967Z,46.05
2023-05-17T06:23:32.538Z,45.73
2023-05-17T06:28:34.078Z,46.00
2023-05-17T06:33:35.795Z,45.76
2023-05-17T06:38:37.459Z,45.85
2023-05-17T06:43:39.062Z,45.61
2023-05-17T06:48:40.751Z,45.43
2023-05-17T06:53:42.412Z,45.63
2023-05-17T06:58:43.944Z,45.13
2023-05-17T07:03:45.705Z,45.55
2023-05-17T07:08:47.291Z,45.62
2023-05-17T07:13:50.665Z,45.43
2023-05-17T07:18:53.148Z,45.16
2023-05-17T07:23:54.726Z,45.40
2023-05-17T07:28:56.240Z,45.20
2023-05-17T07:33:57.982Z,44.67
2023-05-17T07:38:59.685Z,44.96
2023-05-17T07:44:01.370Z,44.79
2023-05-17T07:49:03.098Z,44.64
2023-05-17T07:54:04.823Z,44.12
2023-05-17T07:59:06.865Z,44.24
2023-05-17T08:04:08.434Z,44.50
2023-05-17T08:09:11.050Z,44.10
2023-05-17T08:14:16.767Z,43.86
2023-05-17T08:19:19.377Z,43.81
2023-05-17T08:24:21.121Z,43.63
2023-05-17T08:29:22.652Z,43.44
2023-05-17T08:34:24.499Z,43.36
2023-05-17T08:39:26.160Z,43.53
2023-05-17T08:44:28.576Z,43.58
2023-05-17T08:49:33.458Z,43.49
2023-05-17T08:54:35.717Z,42.88
2023-05-17T08:59:39.055Z,42.81
2023-05-17T09:04:41.084Z,42.68
2023-05-17T09:09:42.814Z,42.66
2023-05-17T09:14:44.541Z,42.32
2023-05-17T09:19:47.901Z,42.34
2023-05-17T09:24:49.984Z,42.38
2023-05-17T09:29:54.524Z,41.33
2023-05-17T09:34:59.328Z,40.81
2023-05-17T09:40:01.181Z,40.82
2023-05-17T09:45:03.078Z,40.65
2023-05-17T09:50:05.474Z,40.60
2023-05-17T09:55:07.356Z,40.47
2023-05-17T10:00:12.002Z,40.58
2023-05-17T10:05:15.768Z,40.23
2023-05-17T10:10:18.149Z,40.31
2023-05-17T10:15:20.894Z,40.28
2023-05-17T10:20:22.545Z,40.29
2023-05-17T10:25:24.339Z,40.46
2023-05-17T10:30:28.555Z,40.38
2023-05-17T10:35:30.656Z,40.64
2023-05-17T10:40:32.906Z,40.47
2023-05-17T10:45:37.016Z,40.12
2023-05-17T10:50:45.039Z,40.21
2023-05-17T10:55:55.768Z,39.69
2023-05-17T11:00:57.299Z,38.75
2023-05-17T11:06:22.010Z,39.24
2023-05-17T11:11:25.190Z,38.94
2023-05-17T11:16:34.295Z,38.84
2023-05-17T11:21:36.090Z,38.56
2023-05-17T11:26:38.011Z,38.50
2023-05-17T11:31:44.338Z,38.75
2023-05-17T11:36:51.747Z,38.51
2023-05-17T11:41:57.304Z,38.57
2023-05-17T11:47:07.073Z,38.45
2023-05-17T11:52:09.001Z,38.81
2023-05-17T11:57:12.768Z,38.57
2023-05-17T12:02:31.266Z,38.33
2023-05-17T12:07:34.454Z,38.04
2023-05-17T12:12:36.029Z,37.73
2023-05-17T12:17:44.484Z,37.94
2023-05-17T12:22:56.598Z,37.87
2023-05-17T12:28:22.551Z,38.45
2023-05-17T12:33:26.028Z,38.24
2023-05-17T12:38:28.477Z,38.18
2023-05-17T12:43:32.505Z,37.95
2023-05-17T12:48:36.209Z,38.11
2023-05-17T12:53:42.466Z,38.08
2023-05-17T12:58:44.613Z,38.33
2023-05-17T13:03:51.343Z,38.37
2023-05-17T13:09:00.123Z,38.35
2023-05-17T13:14:01.734Z,38.30
2023-05-17T13:19:12.139Z,38.28
2023-05-17T13:24:14.106Z,38.21
2023-05-17T13:29:16.357Z,38.49
2023-05-17T13:34:21.076Z,38.50
2023-05-17T13:39:22.996Z,38.61
2023-05-17T13:44:24.940Z,38.48
2023-05-17T13:49:28.205Z,38.60
2023-05-17T13:54:29.724Z,38.60
2023-05-17T13:59:31.312Z,38.81
2023-05-17T14:04:33.286Z,39.05
2023-05-17T14:09:36.660Z,38.75
2023-05-17T14:14:38.216Z,38.57
2023-05-17T14:19:39.871Z,38.48
2023-05-17T14:24:41.570Z,37.97
2023-05-17T14:29:43.130Z,37.81
2023-05-17T14:34:44.916Z,37.76
2023-05-17T14:39:55.191Z,37.84
2023-05-17T14:45:08.994Z,38.00
2023-05-17T14:50:10.987Z,38.39
2023-05-17T14:55:12.510Z,38.57
2023-05-17T15:00:14.323Z,38.04
2023-05-17T15:05:16.322Z,38.26
2023-05-17T15:10:18.068Z,37.39
2023-05-17T15:15:22.144Z,37.19
2023-05-17T15:20:23.830Z,37.58
2023-05-17T15:25:25.323Z,37.70
2023-05-17T15:30:29.702Z,37.79
2023-05-17T15:35:31.455Z,37.40
2023-05-17T15:40:34.222Z,36.91
2023-05-17T15:45:35.782Z,37.05
2023-05-17T15:50:37.360Z,37.04
2023-05-17T15:55:38.876Z,36.67
2023-05-17T16:00:40.400Z,36.53
2023-05-17T16:05:42.612Z,36.45
2023-05-17T16:10:44.555Z,36.23
2023-05-17T16:15:46.121Z,36.05
2023-05-17T16:20:47.653Z,36.77
2023-05-17T16:25:49.155Z,36.58
2023-05-17T16:30:51.663Z,36.44
2023-05-17T16:35:53.256Z,36.57
2023-05-17T16:40:55.025Z,36.68
2023-05-17T16:45:56.550Z,37.10
2023-05-17T16:50:59.412Z,37.04
2023-05-17T16:56:01.420Z,36.86
2023-05-17T17:01:03.226Z,36.81
2023-05-17T17:06:04.913Z,36.69
2023-05-17T17:11:06.415Z,36.75
2023-05-17T17:16:07.972Z,37.23
2023-05-17T17:21:10.234Z,37.73
2023-05-17T17:26:11.970Z,38.01
2023-05-17T17:31:13.788Z,38.01
2023-05-17T17:36:15.713Z,38.21
2023-05-17T17:41:17.299Z,38.03
2023-05-17T17:46:18.964Z,38.05
2023-05-17T17:51:20.606Z,37.78
2023-05-17T17:56:23.992Z,37.81
2023-05-17T18:01:30.967Z,38.04
2023-05-17T18:06:33.988Z,37.87
2023-05-17T18:11:35.648Z,38.25
2023-05-17T18:16:37.756Z,38.72
2023-05-17T18:21:39.454Z,39.20
2023-05-17T18:26:41.032Z,39.35
2023-05-17T18:31:42.696Z,39.23
2023-05-17T18:36:44.333Z,39.74
2023-05-17T18:41:45.945Z,39.70
2023-05-17T18:46:48.701Z,39.55
2023-05-17T18:51:50.405Z,39.84
2023-05-17T18:56:52.038Z,39.93
2023-05-17T19:01:54.086Z,39.57
2023-05-17T19:06:55.693Z,39.33
2023-05-17T19:11:57.424Z,39.73
2023-05-17T19:16:59.690Z,39.70
2023-05-17T19:22:02.214Z,39.73
2023-05-17T19:27:04.750Z,40.02
2023-05-17T19:32:06.501Z,39.69
2023-05-17T19:37:08.290Z,39.94
2023-05-17T19:42:10.109Z,39.90
2023-05-17T19:47:11.668Z,39.98
2023-05-17T19:52:13.341Z,40.37
2023-05-17T19:57:14.893Z,39.93
2023-05-17T20:02:16.672Z,39.42
2023-05-17T20:07:18.559Z,39.24
2023-05-17T20:12:20.424Z,39.29
2023-05-17T20:17:22.050Z,39.10
2023-05-17T20:22:23.781Z,39.39
2023-05-17T20:27:26.293Z,39.43
2023-05-17T20:32:28.112Z,39.62
2023-05-17T20:37:29.742Z,39.47
2023-05-17T20:42:32.596Z,39.57
2023-05-17T20:47:34.237Z,39.38
2023-05-17T20:52:39.579Z,39.50
2023-05-17T20:57:42.012Z,39.37
2023-05-17T21:02:43.767Z,39.52
2023-05-17T21:07:46.694Z,39.67
2023-05-17T21:12:48.446Z,40.09
2023-05-17T21:17:50.186Z,39.56
2023-05-17T21:22:51.821Z,39.39
2023-05-17T21:27:53.349Z,39.88
2023-05-17T21:32:55.099Z,39.70
2023-05-17T21:37:56.757Z,39.74
2023-05-17T21:42:58.354Z,39.84
2023-05-17T21:48:00.125Z,39.71
2023-05-17T21:53:01.765Z,40.08
2023-05-17T21:58:03.377Z,39.97
2023-05-17T22:03:05.061Z,40.27
2023-05-17T22:08:06.761Z,40.31
2023-05-17T22:13:12.068Z,40.04
2023-05-17T22:18:13.914Z,39.97
2023-05-17T22:23:16.148Z,40.08
2023-05-17T22:28:17.736Z,40.18
2023-05-17T22:33:22.125Z,40.10
2023-05-17T22:38:23.763Z,40.25
2023-05-17T22:43:25.991Z,40.19
2023-05-17T22:48:30.295Z,40.24
2023-05-17T22:53:31.934Z,40.10
2023-05-17T22:58:33.607Z,40.43
2023-05-17T23:03:35.174Z,40.23
2023-05-17T23:08:36.745Z,40.47
2023-05-17T23:13:38.408Z,40.52
2023-05-17T23:18:40.767Z,40.61
2023-05-17T23:23:42.312Z,40.53
2023-05-17T23:28:44.075Z,40.57
2023-05-17T23:33:45.646Z,41.07
2023-05-17T23:38:47.623Z,41.13
2023-05-17T23:43:49.183Z,41.17
2023-05-17T23:48:51.410Z,41.08
2023-05-17T23:53:52.959Z,41.29
2023-05-17T23:58:54.596Z,41.02
